Time;durP1;ratioP1;P1;durP2;ratioP2;P2;SDS_P1;SDS_P2;PMS_P1;PMS_P2;Temp;Humidity;BMP_temperature;BMP_pressure;BME280_temperature;BME280_humidity;BME280_pressure;Samples;Min_cycle;Max_cycle;Signal;HPM_P1;HPM_P2
2023/06/18 00:01:31;;;;;;;3.08;2.75;;;18.20;99.90;;;;;;5002335;28;20061;-81
2023/06/18 00:03:58;;;;;;;3.15;2.70;;;18.30;99.90;;;;;;5002560;28;20088;-81
2023/06/18 00:06:25;;;;;;;3.55;3.17;;;18.30;99.90;;;;;;4984621;28;20291;-81
2023/06/18 00:08:53;;;;;;;4.80;3.65;;;18.30;99.90;;;;;;5001513;28;20053;-81
2023/06/18 00:11:20;;;;;;;4.05;2.90;;;18.40;99.90;;;;;;4984657;28;20058;-81
2023/06/18 00:13:47;;;;;;;3.75;3.38;;;18.40;99.90;;;;;;4999557;28;20082;-81
2023/06/18 00:16:15;;;;;;;4.43;3.80;;;18.40;99.90;;;;;;5000817;28;20056;-81
2023/06/18 00:18:42;;;;;;;4.22;3.38;;;18.40;99.90;;;;;;4984309;28;20050;-81
2023/06/18 00:21:10;;;;;;;3.63;3.33;;;18.30;99.90;;;;;;4983723;28;20469;-81
2023/06/18 00:23:37;;;;;;;4.40;3.40;;;18.30;99.90;;;;;;4983862;28;20153;-81
2023/06/18 00:26:04;;;;;;;3.33;2.95;;;18.20;99.90;;;;;;5000807;28;20045;-82
2023/06/18 00:28:32;;;;;;;3.65;3.25;;;18.20;99.90;;;;;;5001377;28;20053;-82
2023/06/18 00:31:01;;;;;;;3.55;2.83;;;18.10;99.90;;;;;;5005288;28;20123;-83
2023/06/18 00:33:29;;;;;;;3.20;2.90;;;18.20;99.90;;;;;;4997907;28;20061;-81
2023/06/18 00:35:59;;;;;;;3.47;3.17;;;18.10;99.90;;;;;;4982832;28;20053;-81
2023/06/18 00:38:29;;;;;;;5.45;3.90;;;18.00;99.90;;;;;;4973154;28;20061;-83
2023/06/18 00:40:56;;;;;;;4.95;4.13;;;18.00;99.90;;;;;;4997583;28;20100;-81
2023/06/18 00:43:23;;;;;;;5.03;4.32;;;17.90;99.90;;;;;;4999534;28;20436;-81
2023/06/18 00:45:50;;;;;;;4.72;4.13;;;17.90;99.90;;;;;;4997896;28;20057;-80
2023/06/18 00:48:17;;;;;;;4.45;4.05;;;17.90;99.90;;;;;;5002211;28;20050;-80
2023/06/18 00:50:44;;;;;;;4.03;3.63;;;17.90;99.90;;;;;;5001180;28;20053;-80
2023/06/18 00:53:13;;;;;;;4.38;3.95;;;17.90;99.90;;;;;;4985453;28;20485;-80
2023/06/18 00:55:41;;;;;;;5.05;3.85;;;17.90;99.90;;;;;;5002322;28;20489;-79
2023/06/18 00:58:07;;;;;;;4.05;3.53;;;18.00;99.90;;;;;;5002150;28;20047;-80
2023/06/18 01:00:34;;;;;;;3.28;2.97;;;18.00;99.90;;;;;;5002660;28;20054;-79
2023/06/18 01:03:06;;;;;;;4.70;4.15;;;18.00;99.90;;;;;;4983428;28;20561;-79
2023/06/18 01:05:33;;;;;;;5.05;4.07;;;18.00;99.90;;;;;;4998716;28;20124;-80
2023/06/18 01:08:06;;;;;;;4.85;4.35;;;17.90;99.90;;;;;;4984645;28;20060;-79
2023/06/18 01:10:38;;;;;;;4.60;4.20;;;17.90;99.90;;;;;;5002394;28;20068;-79
2023/06/18 01:13:10;;;;;;;5.65;5.13;;;17.80;99.90;;;;;;4986153;28;20053;-79
2023/06/18 01:15:38;;;;;;;5.10;4.10;;;17.70;99.90;;;;;;5002121;28;20057;-80
2023/06/18 01:18:07;;;;;;;5.30;4.80;;;17.70;99.90;;;;;;5002542;28;20489;-80
2023/06/18 01:20:40;;;;;;;5.35;4.85;;;17.70;99.90;;;;;;5001144;28;20140;-79
2023/06/18 01:23:24;;;;;;;4.18;3.78;;;17.70;99.90;;;;;;5001548;28;20046;-80
2023/06/18 01:25:50;;;;;;;4.53;4.13;;;17.80;99.90;;;;;;4986529;28;20103;-80
2023/06/18 01:28:17;;;;;;;4.50;4.00;;;17.90;99.90;;;;;;5002254;28;20054;-81
2023/06/18 01:30:44;;;;;;;4.32;3.65;;;18.00;99.90;;;;;;5000460;28;20057;-80
2023/06/18 01:33:12;;;;;;;4.07;3.67;;;18.00;99.90;;;;;;4999536;28;20062;-80
2023/06/18 01:35:39;;;;;;;3.67;3.35;;;18.00;99.90;;;;;;4984927;28;20119;-80
2023/06/18 01:38:23;;;;;;;4.63;4.22;;;18.10;99.90;;;;;;5003308;28;20050;-80
2023/06/18 01:41:01;;;;;;;4.45;4.05;;;18.00;99.90;;;;;;4998709;28;20069;-80
2023/06/18 01:43:47;;;;;;;4.55;4.15;;;18.00;99.90;;;;;;4989071;28;20085;-80
2023/06/18 01:46:16;;;;;;;3.83;3.47;;;18.00;99.90;;;;;;5004079;28;20053;-80
2023/06/18 01:49:06;;;;;;;3.40;3.10;;;18.00;99.90;;;;;;4987742;28;20108;-80
2023/06/18 01:51:35;;;;;;;4.50;4.10;;;18.10;99.90;;;;;;4987849;28;20061;-80
2023/06/18 01:54:03;;;;;;;4.32;3.75;;;18.10;99.90;;;;;;5003750;28;20078;-80
2023/06/18 01:56:30;;;;;;;3.70;3.20;;;18.10;99.90;;;;;;4988200;28;20058;-80
2023/06/18 01:58:57;;;;;;;4.40;4.00;;;18.20;99.90;;;;;;4972124;28;20054;-80
2023/06/18 02:01:26;;;;;;;5.00;4.43;;;18.10;99.90;;;;;;4987974;28;20498;-81
2023/06/18 02:03:53;;;;;;;4.93;4.53;;;18.10;99.90;;;;;;5004524;28;20073;-80
2023/06/18 02:06:19;;;;;;;5.28;4.78;;;18.00;99.90;;;;;;5002826;28;20084;-80
2023/06/18 02:08:46;;;;;;;4.05;3.65;;;18.00;99.90;;;;;;5003721;28;20133;-80
2023/06/18 02:11:13;;;;;;;4.32;3.92;;;18.00;99.90;;;;;;5003878;28;20085;-80
2023/06/18 02:13:40;;;;;;;5.60;5.10;;;17.90;99.90;;;;;;4987428;28;20050;-80
2023/06/18 02:16:07;;;;;;;5.53;5.03;;;17.80;99.90;;;;;;5003443;28;20046;-80
2023/06/18 02:18:33;;;;;;;5.38;4.82;;;17.70;99.90;;;;;;5004690;28;20093;-80
2023/06/18 02:21:00;;;;;;;6.15;5.55;;;17.60;99.90;;;;;;4991309;28;20042;-80
2023/06/18 02:23:27;;;;;;;5.05;4.53;;;17.60;99.90;;;;;;5006948;28;20057;-80
2023/06/18 02:25:57;;;;;;;5.63;4.78;;;17.70;99.90;;;;;;5007437;28;20046;-80
2023/06/18 02:28:23;;;;;;;4.50;4.07;;;17.60;99.90;;;;;;4991682;28;20081;-80
2023/06/18 02:30:50;;;;;;;4.40;3.97;;;17.70;99.90;;;;;;5006923;28;20050;-80
2023/06/18 02:33:18;;;;;;;5.18;4.30;;;17.70;99.90;;;;;;4990539;28;20120;-80
2023/06/18 02:35:45;;;;;;;4.43;4.03;;;17.80;99.90;;;;;;5006693;28;20064;-80
2023/06/18 02:38:11;;;;;;;4.32;3.92;;;17.70;99.90;;;;;;5006639;28;20088;-80
2023/06/18 02:40:38;;;;;;;5.18;4.68;;;17.70;99.90;;;;;;5006533;28;20136;-81
2023/06/18 02:43:05;;;;;;;5.03;4.53;;;17.70;99.90;;;;;;5006834;28;20041;-79
2023/06/18 02:45:32;;;;;;;4.50;4.10;;;17.70;99.90;;;;;;5008183;28;20069;-80
2023/06/18 02:47:59;;;;;;;4.80;4.40;;;17.70;99.90;;;;;;5006627;28;20061;-79
2023/06/18 02:50:26;;;;;;;4.60;4.10;;;17.70;99.90;;;;;;5008115;28;20163;-82
2023/06/18 02:52:54;;;;;;;5.55;4.97;;;17.70;99.90;;;;;;5006920;28;20107;-80
2023/06/18 02:55:22;;;;;;;7.15;6.45;;;17.60;99.90;;;;;;5005613;28;20076;-80
2023/06/18 02:57:49;;;;;;;5.50;5.00;;;17.60;99.90;;;;;;5006458;28;20323;-80
2023/06/18 03:00:16;;;;;;;5.50;5.00;;;17.60;99.90;;;;;;4990572;28;20136;-79
2023/06/18 03:02:43;;;;;;;4.85;4.40;;;17.60;99.90;;;;;;4990234;28;20077;-80
2023/06/18 03:05:10;;;;;;;5.10;4.60;;;17.70;99.90;;;;;;5006155;28;20612;-80
2023/06/18 03:07:37;;;;;;;4.70;4.20;;;17.70;99.90;;;;;;4986621;28;20077;-79
2023/06/18 03:10:04;;;;;;;4.45;4.05;;;17.70;99.90;;;;;;5005992;28;20049;-80
2023/06/18 03:12:31;;;;;;;5.18;4.68;;;17.80;99.90;;;;;;5006578;28;20394;-79
2023/06/18 03:14:58;;;;;;;4.55;4.15;;;17.80;99.90;;;;;;5006063;28;20050;-80
2023/06/18 03:17:24;;;;;;;5.20;4.70;;;17.80;99.90;;;;;;4990553;28;20046;-79
2023/06/18 03:19:51;;;;;;;5.35;4.85;;;17.80;99.90;;;;;;5006377;28;20046;-78
2023/06/18 03:22:18;;;;;;;5.88;5.38;;;17.80;99.90;;;;;;5006135;28;20046;-78
2023/06/18 03:24:45;;;;;;;6.97;6.28;;;17.70;99.90;;;;;;4990033;28;20046;-79
2023/06/18 03:27:13;;;;;;;7.15;6.55;;;17.60;99.90;;;;;;5006320;28;20059;-79
2023/06/18 03:29:40;;;;;;;6.75;6.15;;;17.50;99.90;;;;;;5006147;28;20103;-80
2023/06/18 03:32:08;;;;;;;6.65;6.05;;;17.50;99.90;;;;;;5006085;28;20062;-80
2023/06/18 03:34:35;;;;;;;6.05;5.45;;;17.50;99.90;;;;;;5005665;28;20053;-80
2023/06/18 03:37:02;;;;;;;6.43;5.82;;;17.50;99.90;;;;;;4989393;28;20062;-81
2023/06/18 03:39:29;;;;;;;5.05;4.55;;;17.50;99.90;;;;;;4989481;28;20054;-80
2023/06/18 03:41:55;;;;;;;5.63;5.13;;;17.50;99.90;;;;;;4990188;28;20050;-80
2023/06/18 03:44:22;;;;;;;4.22;3.83;;;17.60;99.90;;;;;;4995768;28;20053;-81
2023/06/18 03:46:49;;;;;;;3.45;3.15;;;17.60;99.90;;;;;;4989812;28;20042;-80
2023/06/18 03:49:16;;;;;;;3.38;3.08;;;17.70;99.90;;;;;;5005958;28;20054;-79
2023/06/18 03:51:43;;;;;;;2.58;2.38;;;17.70;99.90;;;;;;5005754;28;20054;-79
2023/06/18 03:54:10;;;;;;;2.63;2.42;;;17.70;99.90;;;;;;5005173;28;20046;-80
2023/06/18 03:56:37;;;;;;;2.60;2.40;;;17.80;99.90;;;;;;5005705;28;20076;-80
2023/06/18 03:59:04;;;;;;;2.42;2.00;;;17.90;99.90;;;;;;4988533;28;20054;-79
2023/06/18 04:01:31;;;;;;;2.47;1.98;;;18.00;99.90;;;;;;5005391;28;20449;-80
2023/06/18 04:03:59;;;;;;;2.13;1.90;;;18.00;99.90;;;;;;5005135;28;20493;-80
2023/06/18 04:06:27;;;;;;;2.47;2.28;;;18.00;99.90;;;;;;5004834;28;20050;-80
2023/06/18 04:08:54;;;;;;;3.13;2.53;;;18.00;99.90;;;;;;5004240;28;20064;-80
2023/06/18 04:11:21;;;;;;;3.63;2.97;;;17.90;99.90;;;;;;5005525;28;20409;-80
2023/06/18 04:13:48;;;;;;;2.92;2.60;;;17.90;99.90;;;;;;5004643;28;20061;-80
2023/06/18 04:16:14;;;;;;;3.25;2.60;;;17.90;99.90;;;;;;5005377;28;20053;-80
2023/06/18 04:18:41;;;;;;;3.10;2.80;;;18.00;99.90;;;;;;5005344;28;20661;-80
2023/06/18 04:21:08;;;;;;;2.78;2.53;;;17.90;99.90;;;;;;4988246;28;20046;-80
2023/06/18 04:23:35;;;;;;;3.25;2.85;;;17.90;99.90;;;;;;4988568;28;20089;-80
2023/06/18 04:26:01;;;;;;;3.28;2.95;;;17.90;99.90;;;;;;5005917;28;20111;-80
2023/06/18 04:28:28;;;;;;;2.53;2.28;;;17.90;99.90;;;;;;5005346;28;20128;-80
2023/06/18 04:30:55;;;;;;;3.13;2.83;;;17.90;99.90;;;;;;5006442;28;20049;-80
2023/06/18 04:33:22;;;;;;;2.97;2.67;;;17.90;99.90;;;;;;5005254;28;20121;-79
2023/06/18 04:35:49;;;;;;;3.20;2.70;;;17.80;99.90;;;;;;5005069;28;20077;-80
2023/06/18 04:38:15;;;;;;;3.05;2.72;;;17.80;99.90;;;;;;5005503;28;20037;-80
2023/06/18 04:40:42;;;;;;;3.00;2.70;;;17.80;99.90;;;;;;5005009;28;20046;-80
2023/06/18 04:43:09;;;;;;;2.78;2.45;;;17.80;99.90;;;;;;5004972;28;20109;-80
2023/06/18 04:45:37;;;;;;;3.22;2.50;;;17.90;99.90;;;;;;4988496;28;20054;-80
2023/06/18 04:48:04;;;;;;;2.85;2.40;;;17.90;99.90;;;;;;4986036;28;20053;-80
2023/06/18 04:50:31;;;;;;;2.47;2.28;;;17.90;99.90;;;;;;5002685;28;20148;-80
2023/06/18 04:52:58;;;;;;;3.20;2.70;;;18.00;99.90;;;;;;5003465;28;20050;-80
2023/06/18 04:55:24;;;;;;;2.60;2.40;;;18.00;99.90;;;;;;5002057;28;20456;-80
2023/06/18 04:57:51;;;;;;;3.28;2.55;;;18.10;99.90;;;;;;5002546;28;20171;-79
2023/06/18 05:00:19;;;;;;;2.78;2.38;;;18.10;99.90;;;;;;4986134;28;20045;-79
2023/06/18 05:02:47;;;;;;;2.22;2.03;;;18.20;99.90;;;;;;4999952;28;20053;-80
2023/06/18 05:05:15;;;;;;;2.75;2.55;;;18.30;99.90;;;;;;4982671;28;20053;-80
2023/06/18 05:07:42;;;;;;;2.75;2.40;;;18.30;99.90;;;;;;4999523;28;20103;-80
2023/06/18 05:10:09;;;;;;;2.55;2.33;;;18.30;99.90;;;;;;5001988;28;20054;-80
2023/06/18 05:12:38;;;;;;;3.40;2.30;;;18.30;99.90;;;;;;5002097;28;20049;-80
2023/06/18 05:15:06;;;;;;;2.30;1.95;;;18.30;99.90;;;;;;4970196;28;20073;-80
2023/06/18 05:17:34;;;;;;;2.50;1.98;;;18.40;99.90;;;;;;4986401;28;20050;-80
2023/06/18 05:20:01;;;;;;;2.85;2.58;;;18.40;99.90;;;;;;4998452;28;20054;-80
2023/06/18 05:22:28;;;;;;;2.20;2.00;;;18.50;99.90;;;;;;4998329;28;20082;-80
2023/06/18 05:24:55;;;;;;;2.75;2.17;;;18.60;99.90;;;;;;4998045;28;20065;-80
2023/06/18 05:27:22;;;;;;;2.65;2.10;;;18.60;99.90;;;;;;4999269;28;20062;-81
2023/06/18 05:29:48;;;;;;;2.35;2.05;;;18.70;99.90;;;;;;4999785;28;20103;-81
2023/06/18 05:32:15;;;;;;;2.88;2.58;;;18.70;99.90;;;;;;4981824;28;20077;-82
2023/06/18 05:34:42;;;;;;;2.63;2.42;;;18.80;99.90;;;;;;5002568;28;20050;-81
2023/06/18 05:37:09;;;;;;;2.28;2.03;;;18.80;99.90;;;;;;5001338;28;20647;-80
2023/06/18 05:39:36;;;;;;;3.20;2.65;;;18.90;99.90;;;;;;5001894;28;20045;-80
2023/06/18 05:42:03;;;;;;;2.70;2.05;;;18.90;99.90;;;;;;4985442;28;20104;-80
2023/06/18 05:44:30;;;;;;;2.95;2.65;;;19.00;99.90;;;;;;5001706;28;20081;-80
2023/06/18 05:46:57;;;;;;;2.60;2.25;;;18.90;99.90;;;;;;5004013;28;20058;-80
2023/06/18 05:49:25;;;;;;;2.53;2.33;;;18.90;99.90;;;;;;5002221;28;20583;-80
2023/06/18 05:51:52;;;;;;;2.40;2.20;;;18.90;99.90;;;;;;5003370;28;20069;-80
2023/06/18 05:54:18;;;;;;;2.60;2.33;;;19.00;99.90;;;;;;5005103;28;20456;-80
2023/06/18 05:56:45;;;;;;;3.00;2.63;;;19.00;99.90;;;;;;5000437;28;20046;-81
2023/06/18 05:59:12;;;;;;;2.92;2.63;;;19.10;99.90;;;;;;4959531;28;20120;-79
2023/06/18 06:01:39;;;;;;;3.40;3.08;;;19.10;99.90;;;;;;4972822;28;20034;-78
2023/06/18 06:04:06;;;;;;;3.05;2.72;;;19.10;99.90;;;;;;4988767;28;20046;-80
2023/06/18 06:06:33;;;;;;;2.50;2.20;;;19.20;99.90;;;;;;5005311;28;20073;-80
2023/06/18 06:09:00;;;;;;;2.58;2.38;;;19.20;99.90;;;;;;4988526;28;20485;-80
2023/06/18 06:11:27;;;;;;;3.28;2.75;;;19.30;99.90;;;;;;5010538;28;20657;-81
2023/06/18 06:13:53;;;;;;;2.95;2.65;;;19.30;99.90;;;;;;4999794;28;20049;-81
2023/06/18 06:16:20;;;;;;;2.65;2.38;;;19.30;99.90;;;;;;5003806;28;20050;-82
2023/06/18 06:18:49;;;;;;;2.92;2.45;;;19.30;99.90;;;;;;4985112;28;20060;-82
2023/06/18 06:21:16;;;;;;;2.88;2.60;;;19.30;99.90;;;;;;4969793;28;20058;-81
2023/06/18 06:23:42;;;;;;;2.50;2.30;;;19.40;99.90;;;;;;4994422;28;20062;-82
2023/06/18 06:26:09;;;;;;;3.47;3.10;;;19.40;99.90;;;;;;4996325;28;20127;-82
2023/06/18 06:28:36;;;;;;;3.25;2.85;;;19.40;99.90;;;;;;4995392;28;20057;-82
2023/06/18 06:31:05;;;;;;;2.80;2.55;;;19.30;99.90;;;;;;5002049;28;20621;-82
2023/06/18 06:33:31;;;;;;;3.08;2.78;;;19.30;99.90;;;;;;5001092;28;20595;-82
2023/06/18 06:35:58;;;;;;;3.50;3.20;;;19.30;99.90;;;;;;4983575;28;20531;-83
2023/06/18 06:38:25;;;;;;;3.35;3.05;;;19.40;99.90;;;;;;4986953;28;20064;-82
2023/06/18 06:40:52;;;;;;;3.10;2.80;;;19.40;99.90;;;;;;5002962;28;20053;-82
2023/06/18 06:43:19;;;;;;;3.78;3.47;;;19.40;99.90;;;;;;4999440;28;20050;-82
2023/06/18 06:45:46;;;;;;;2.83;2.53;;;19.50;99.90;;;;;;5003222;28;20142;-81
2023/06/18 06:48:13;;;;;;;3.13;2.83;;;19.70;99.90;;;;;;4996393;28;20045;-81
2023/06/18 06:50:39;;;;;;;2.97;2.70;;;19.90;99.90;;;;;;4996911;28;20520;-81
2023/06/18 06:53:06;;;;;;;2.90;2.53;;;20.00;99.90;;;;;;4993132;28;20054;-83
2023/06/18 06:55:33;;;;;;;3.05;2.72;;;20.10;99.90;;;;;;5000872;28;20076;-82
2023/06/18 06:58:00;;;;;;;2.85;2.55;;;20.10;99.90;;;;;;5002867;28;20497;-86
2023/06/18 07:00:26;;;;;;;2.97;2.67;;;20.20;99.90;;;;;;5002871;28;20066;-85
2023/06/18 07:02:53;;;;;;;2.55;2.22;;;20.40;99.90;;;;;;4988126;28;20053;-87
2023/06/18 07:05:20;;;;;;;2.97;2.67;;;20.50;99.90;;;;;;4999071;28;20065;-86
2023/06/18 07:07:48;;;;;;;3.15;2.78;;;20.50;99.90;;;;;;4983066;28;20050;-86
2023/06/18 07:10:15;;;;;;;3.08;2.78;;;20.60;99.90;;;;;;4989748;28;20073;-88
2023/06/18 07:12:41;;;;;;;3.53;3.22;;;20.60;99.90;;;;;;5005252;28;20045;-87
2023/06/18 07:15:09;;;;;;;3.70;3.40;;;20.70;99.90;;;;;;5001010;28;20057;-86
2023/06/18 07:17:35;;;;;;;2.92;2.63;;;20.80;99.90;;;;;;4970183;28;20054;-87
2023/06/18 07:20:03;;;;;;;3.60;3.00;;;20.90;99.90;;;;;;4998316;28;20057;-86
2023/06/18 07:22:29;;;;;;;3.10;2.80;;;21.00;99.90;;;;;;4988327;28;20124;-87
2023/06/18 07:24:58;;;;;;;3.35;3.05;;;21.10;99.90;;;;;;4970611;28;20113;-86
2023/06/18 07:27:25;;;;;;;3.25;2.95;;;21.20;99.90;;;;;;5004163;28;20058;-76
2023/06/18 07:29:51;;;;;;;2.90;2.60;;;21.30;99.90;;;;;;5000322;28;20069;-78
2023/06/18 07:32:18;;;;;;;2.33;2.13;;;21.50;99.90;;;;;;4994489;28;20591;-83
2023/06/18 07:34:45;;;;;;;3.42;2.80;;;21.80;99.90;;;;;;4982420;28;20142;-82
2023/06/18 07:37:12;;;;;;;2.60;2.40;;;22.00;99.90;;;;;;4987063;28;20053;-83
2023/06/18 07:39:39;;;;;;;2.72;2.50;;;22.10;99.90;;;;;;4992784;28;20145;-83
2023/06/18 07:42:05;;;;;;;3.25;2.95;;;22.20;99.90;;;;;;4999731;28;20050;-84
2023/06/18 07:44:32;;;;;;;3.00;2.80;;;22.30;99.90;;;;;;4969409;28;20080;-85
2023/06/18 07:47:03;;;;;;;2.50;2.30;;;22.40;99.90;;;;;;4990348;28;20076;-87
2023/06/18 07:49:30;;;;;;;2.92;2.63;;;22.50;99.90;;;;;;4991807;28;20046;-87
2023/06/18 07:51:57;;;;;;;3.25;2.95;;;22.60;99.90;;;;;;4987026;28;20168;-84
2023/06/18 07:54:24;;;;;;;3.40;3.10;;;22.70;99.90;;;;;;4985071;28;20053;-86
2023/06/18 07:56:51;;;;;;;2.88;2.58;;;22.70;99.90;;;;;;5021268;28;20406;-85
2023/06/18 07:59:17;;;;;;;2.85;2.58;;;22.70;99.90;;;;;;5005158;28;20057;-85
2023/06/18 08:01:45;;;;;;;3.25;2.40;;;22.70;99.90;;;;;;4984878;28;20452;-86
2023/06/18 08:04:12;;;;;;;2.53;2.33;;;22.80;99.90;;;;;;5002759;28;20054;-85
2023/06/18 08:06:39;;;;;;;3.08;2.78;;;22.90;99.90;;;;;;5004856;28;20472;-85
2023/06/18 08:09:05;;;;;;;2.95;2.70;;;22.80;99.90;;;;;;4979836;28;20057;-85
2023/06/18 08:11:32;;;;;;;2.60;2.40;;;22.70;99.90;;;;;;5003319;28;20393;-86
2023/06/18 08:13:59;;;;;;;3.53;2.97;;;22.70;99.90;;;;;;5000491;28;20053;-84
2023/06/18 08:16:26;;;;;;;2.70;2.50;;;22.60;99.90;;;;;;4995116;28;20111;-85
2023/06/18 08:18:53;;;;;;;4.03;2.70;;;22.50;99.90;;;;;;5001722;28;20050;-85
2023/06/18 08:21:20;;;;;;;2.40;2.20;;;22.50;99.90;;;;;;4985227;28;20056;-85
2023/06/18 08:23:47;;;;;;;2.83;2.63;;;22.50;99.90;;;;;;4984099;28;20049;-84
2023/06/18 08:26:15;;;;;;;3.03;2.63;;;22.50;99.90;;;;;;4999490;28;20045;-85
2023/06/18 08:28:41;;;;;;;2.88;2.63;;;22.50;99.90;;;;;;5003820;28;20590;-84
2023/06/18 08:31:08;;;;;;;2.53;2.30;;;22.60;99.90;;;;;;4985945;28;20077;-84
2023/06/18 08:33:35;;;;;;;2.42;2.22;;;22.70;99.90;;;;;;4984579;28;20108;-85
2023/06/18 08:36:02;;;;;;;2.92;2.58;;;22.80;99.90;;;;;;4999050;28;20053;-85
2023/06/18 08:38:29;;;;;;;2.75;2.53;;;22.90;99.90;;;;;;4981568;28;20132;-84
2023/06/18 08:41:00;;;;;;;3.00;2.70;;;23.00;99.90;;;;;;4987215;28;20053;-85
2023/06/18 08:43:32;;;;;;;2.45;2.03;;;23.10;99.90;;;;;;5002415;28;20046;-85
2023/06/18 08:46:12;;;;;;;2.72;2.38;;;23.20;99.90;;;;;;5002262;28;20049;-84
2023/06/18 08:48:48;;;;;;;3.10;2.80;;;23.30;99.90;;;;;;4998652;28;20448;-85
2023/06/18 08:51:16;;;;;;;3.85;3.25;;;23.40;99.90;;;;;;4999981;28;20275;-84
2023/06/18 08:54:09;;;;;;;2.80;2.50;;;23.40;99.90;;;;;;4985109;28;20057;-85
2023/06/18 08:56:40;;;;;;;2.90;2.70;;;23.50;99.90;;;;;;5000735;28;20123;-84
2023/06/18 08:59:07;;;;;;;3.70;3.40;;;23.40;99.90;;;;;;4985729;28;20681;-87
2023/06/18 09:01:34;;;;;;;3.88;3.58;;;23.40;99.90;;;;;;4986465;28;20544;-87
2023/06/18 09:04:01;;;;;;;3.60;3.15;;;23.40;99.90;;;;;;5007599;28;20107;-87
2023/06/18 09:06:27;;;;;;;3.38;3.08;;;23.50;99.90;;;;;;4972708;28;20145;-86
2023/06/18 09:08:56;;;;;;;3.20;2.90;;;23.70;99.90;;;;;;4987754;28;20092;-87
2023/06/18 09:11:23;;;;;;;2.70;2.50;;;24.00;99.90;;;;;;4985272;28;20065;-85
2023/06/18 09:13:53;;;;;;;3.55;3.25;;;24.20;99.90;;;;;;5005730;28;20050;-85
2023/06/18 09:16:22;;;;;;;2.90;2.60;;;24.30;99.90;;;;;;4996102;28;20084;-86
2023/06/18 09:18:49;;;;;;;2.88;2.40;;;24.50;99.90;;;;;;4984561;28;20052;-88
2023/06/18 09:21:38;;;;;;;3.17;2.88;;;24.60;99.90;;;;;;5005374;28;20132;-87
2023/06/18 09:24:15;;;;;;;3.75;3.08;;;24.70;99.90;;;;;;5009048;28;20053;-88
2023/06/18 09:26:42;;;;;;;4.18;3.78;;;24.70;99.90;;;;;;5005242;28;20049;-88
2023/06/18 09:29:10;;;;;;;4.10;3.47;;;24.70;99.90;;;;;;5002839;28;20121;-87
2023/06/18 09:31:44;;;;;;;3.35;3.05;;;24.70;99.90;;;;;;5006800;28;20074;-88
2023/06/18 09:34:15;;;;;;;3.30;3.00;;;24.90;99.90;;;;;;5005706;28;20045;-88
2023/06/18 09:36:43;;;;;;;3.60;3.30;;;25.00;99.90;;;;;;5011446;28;20042;-89
2023/06/18 09:39:17;;;;;;;3.53;3.22;;;25.00;99.90;;;;;;5006454;28;20221;-88
2023/06/18 09:41:45;;;;;;;2.95;2.58;;;25.10;99.90;;;;;;4986865;28;20268;-88
2023/06/18 09:44:21;;;;;;;3.38;3.08;;;25.10;99.90;;;;;;5005201;28;20085;-88
2023/06/18 09:46:50;;;;;;;3.17;2.88;;;25.20;99.90;;;;;;5005928;28;20088;-88
2023/06/18 09:49:19;;;;;;;2.60;2.38;;;25.40;99.90;;;;;;4975738;28;20520;-87
2023/06/18 09:51:46;;;;;;;3.10;2.80;;;25.40;99.90;;;;;;5005215;28;20137;-88
2023/06/18 09:54:13;;;;;;;2.70;2.50;;;25.50;99.90;;;;;;4982790;28;20115;-79
2023/06/18 09:56:39;;;;;;;2.70;2.50;;;25.50;99.90;;;;;;4997424;28;20049;-78
2023/06/18 09:59:06;;;;;;;2.33;2.13;;;25.50;99.90;;;;;;4987301;28;20146;-79
2023/06/18 10:01:46;;;;;;;2.80;2.58;;;25.50;99.90;;;;;;5006580;28;20045;-79
2023/06/18 10:04:16;;;;;;;2.83;2.50;;;25.60;99.90;;;;;;4970601;28;20858;-79
2023/06/18 10:06:51;;;;;;;2.78;2.58;;;25.60;99.90;;;;;;4999940;28;20408;-79
2023/06/18 10:09:21;;;;;;;2.92;2.63;;;25.80;99.90;;;;;;4999793;28;20045;-79
2023/06/18 10:11:51;;;;;;;2.75;2.55;;;25.90;99.90;;;;;;4994677;28;20122;-79
2023/06/18 10:14:23;;;;;;;2.53;2.33;;;26.00;99.90;;;;;;4975587;28;20382;-79
2023/06/18 10:16:51;;;;;;;2.80;2.60;;;26.10;99.90;;;;;;4986468;28;20065;-78
2023/06/18 10:19:22;;;;;;;2.63;2.38;;;26.10;99.90;;;;;;4994759;28;20050;-79
2023/06/18 10:22:00;;;;;;;2.70;2.47;;;26.10;99.90;;;;;;4997089;28;20076;-78
2023/06/18 10:24:32;;;;;;;2.50;2.25;;;26.20;99.90;;;;;;5001478;28;20100;-79
2023/06/18 10:26:59;;;;;;;2.60;2.40;;;26.30;99.90;;;;;;4996531;28;20054;-79
2023/06/18 10:29:26;;;;;;;3.33;3.03;;;26.30;99.90;;;;;;4967039;28;20077;-79
2023/06/18 10:31:52;;;;;;;2.63;2.42;;;26.30;99.90;;;;;;4996608;28;20077;-79
2023/06/18 10:34:22;;;;;;;2.72;2.53;;;26.40;99.90;;;;;;4986338;28;20074;-79
2023/06/18 10:36:49;;;;;;;3.10;2.80;;;26.50;99.90;;;;;;4995238;28;20057;-79
2023/06/18 10:39:16;;;;;;;2.63;2.42;;;26.70;99.90;;;;;;4998421;28;20105;-79
2023/06/18 10:41:54;;;;;;;2.63;2.42;;;26.70;99.90;;;;;;5006096;28;20046;-79
2023/06/18 10:44:47;;;;;;;2.80;2.50;;;26.90;99.90;;;;;;5001592;28;20418;-79
2023/06/18 10:47:21;;;;;;;2.92;2.63;;;26.90;99.90;;;;;;4980309;28;20049;-79
2023/06/18 10:50:06;;;;;;;2.78;2.58;;;26.90;99.90;;;;;;5004358;28;20050;-78
2023/06/18 10:52:40;;;;;;;2.35;2.15;;;26.90;99.90;;;;;;5002092;28;20131;-79
2023/06/18 10:55:20;;;;;;;2.38;2.17;;;27.00;99.90;;;;;;5000408;28;20057;-79
2023/06/18 10:58:03;;;;;;;3.45;2.72;;;27.20;99.90;;;;;;4991560;28;20137;-79
2023/06/18 11:00:35;;;;;;;2.90;2.63;;;27.60;99.90;;;;;;4979103;28;20107;-82
2023/06/18 11:03:08;;;;;;;2.73;2.53;;;28.00;99.90;;;;;;4999963;28;20180;-85
2023/06/18 11:05:44;;;;;;;2.72;2.53;;;28.30;99.90;;;;;;4998657;28;20494;-85
2023/06/18 11:08:13;;;;;;;3.17;2.80;;;28.40;99.90;;;;;;5004593;28;20042;-84
2023/06/18 11:10:47;;;;;;;3.03;2.83;;;28.40;99.90;;;;;;4983528;28;20046;-84
2023/06/18 11:13:14;;;;;;;2.83;2.63;;;28.50;99.90;;;;;;5003978;28;20060;-85
2023/06/18 11:16:05;;;;;;;2.83;2.63;;;28.70;99.90;;;;;;4987985;28;20129;-84
2023/06/18 11:18:33;;;;;;;3.08;2.83;;;29.10;99.90;;;;;;5003920;28;20091;-84
2023/06/18 11:21:02;;;;;;;2.97;2.67;;;29.10;99.90;;;;;;4988328;28;20580;-84
2023/06/18 11:23:30;;;;;;;2.80;2.60;;;29.10;99.90;;;;;;5002296;28;20104;-85
2023/06/18 11:25:57;;;;;;;2.53;2.33;;;29.20;99.90;;;;;;4988599;28;20043;-84
2023/06/18 11:28:27;;;;;;;2.83;2.63;;;29.10;99.90;;;;;;4987321;28;20058;-84
2023/06/18 11:31:01;;;;;;;2.40;2.20;;;29.40;99.90;;;;;;4987403;28;20038;-84
2023/06/18 11:33:28;;;;;;;3.03;2.83;;;29.30;99.90;;;;;;4971171;28;20064;-83
2023/06/18 11:36:09;;;;;;;2.95;2.75;;;29.20;99.90;;;;;;4987149;28;20053;-85
2023/06/18 11:38:36;;;;;;;3.20;2.97;;;29.40;99.90;;;;;;4986973;28;20408;-84
2023/06/18 11:41:03;;;;;;;3.13;2.88;;;29.70;99.80;;;;;;4987539;28;20578;-84
2023/06/18 11:43:48;;;;;;;2.63;2.42;;;29.80;99.10;;;;;;5004749;28;20490;-84
2023/06/18 11:46:35;;;;;;;2.90;2.60;;;29.90;99.40;;;;;;5003491;28;20046;-84
2023/06/18 11:49:02;;;;;;;2.70;2.50;;;30.00;99.10;;;;;;5000483;28;20053;-85
2023/06/18 11:51:30;;;;;;;2.80;2.60;;;30.00;98.40;;;;;;4997935;28;20118;-84
2023/06/18 11:53:58;;;;;;;2.40;2.20;;;29.80;98.30;;;;;;5001937;28;20586;-84
2023/06/18 11:56:26;;;;;;;2.42;2.22;;;29.50;98.70;;;;;;5006182;28;20104;-86
2023/06/18 11:58:56;;;;;;;2.47;2.28;;;29.40;99.10;;;;;;5005911;28;20049;-84
2023/06/18 12:01:31;;;;;;;2.60;2.05;;;29.30;98.90;;;;;;5006639;28;20417;-84
2023/06/18 12:04:05;;;;;;;2.50;2.30;;;29.00;99.60;;;;;;4973306;28;20049;-83
2023/06/18 12:06:33;;;;;;;2.80;2.60;;;28.70;99.80;;;;;;5009395;28;20050;-84
2023/06/18 12:09:08;;;;;;;2.47;2.28;;;28.40;99.40;;;;;;4992362;28;20038;-83
2023/06/18 12:12:07;;;;;;;3.25;2.95;;;28.30;98.70;;;;;;4995437;28;20050;-84
2023/06/18 12:15:06;;;;;;;2.65;2.45;;;28.30;99.30;;;;;;5001940;28;20054;-84
2023/06/18 12:17:54;;;;;;;2.63;2.42;;;28.50;99.20;;;;;;5008530;28;20444;-84
2023/06/18 12:20:22;;;;;;;2.38;2.17;;;28.60;99.00;;;;;;5008968;28;20100;-85
2023/06/18 12:22:49;;;;;;;2.80;2.60;;;28.70;99.10;;;;;;5010764;28;20069;-85
2023/06/18 12:25:17;;;;;;;2.33;2.13;;;28.80;98.90;;;;;;5009430;28;20468;-86
2023/06/18 12:27:44;;;;;;;2.25;2.05;;;28.80;98.60;;;;;;4977485;28;20132;-84
2023/06/18 12:30:11;;;;;;;2.60;2.40;;;28.60;98.30;;;;;;5011150;28;20045;-84
2023/06/18 12:32:39;;;;;;;2.33;2.13;;;28.40;98.40;;;;;;4991300;28;20050;-85
2023/06/18 12:35:13;;;;;;;2.20;2.00;;;28.20;99.10;;;;;;5006481;28;20060;-84
2023/06/18 12:37:44;;;;;;;2.60;2.40;;;28.20;99.50;;;;;;4992581;28;20423;-85
2023/06/18 12:40:18;;;;;;;2.55;2.35;;;28.00;98.60;;;;;;4989368;28;20053;-83
2023/06/18 12:42:46;;;;;;;2.20;2.00;;;27.90;99.00;;;;;;4992768;28;20124;-84
2023/06/18 12:45:22;;;;;;;2.63;2.40;;;27.70;99.30;;;;;;4985631;28;20038;-84
2023/06/18 12:47:49;;;;;;;2.40;2.20;;;27.60;99.60;;;;;;4990687;28;20521;-84
2023/06/18 12:50:21;;;;;;;2.40;2.13;;;27.30;99.90;;;;;;5010756;28;20046;-86
2023/06/18 12:52:47;;;;;;;2.17;1.98;;;27.20;99.60;;;;;;4992679;28;20077;-84
2023/06/18 12:55:15;;;;;;;2.15;1.95;;;27.20;99.90;;;;;;4994226;28;20119;-78
2023/06/18 12:57:48;;;;;;;2.15;1.92;;;27.20;99.80;;;;;;4992610;28;20050;-85